createdAt,value
2023-03-24T00:00:01.851Z,99453.72
2023-03-24T00:01:05.328Z,99465.63
2023-03-24T00:02:08.144Z,99455.25
2023-03-24T00:03:10.828Z,99452.88
2023-03-24T00:04:14.296Z,99447.75
2023-03-24T00:05:18.754Z,99454.91
2023-03-24T00:06:22.636Z,99447.16
2023-03-24T00:07:26.208Z,99454.41
2023-03-24T00:08:30.554Z,99456.00
2023-03-24T00:09:32.389Z,99453.56
2023-03-24T00:10:36.984Z,99443.41
2023-03-24T00:11:38.659Z,99451.44
2023-03-24T00:12:42.615Z,99448.56
2023-03-24T00:13:44.396Z,99445.16
2023-03-24T00:14:47.432Z,99448.69
2023-03-24T00:15:49.015Z,99452.41
2023-03-24T00:16:52.895Z,99452.25
2023-03-24T00:17:56.140Z,99446.72
2023-03-24T00:18:58.711Z,99445.94
2023-03-24T00:20:00.284Z,99448.50
2023-03-24T00:21:03.873Z,99438.34
2023-03-24T00:22:05.531Z,99440.59
2023-03-24T00:23:09.313Z,99443.22
2023-03-24T00:24:12.714Z,99439.97
2023-03-24T00:25:16.200Z,99431.66
2023-03-24T00:26:17.815Z,99435.41
2023-03-24T00:27:21.133Z,99432.53
2023-03-24T00:28:22.709Z,99432.66
2023-03-24T00:29:26.157Z,99435.59
2023-03-24T00:30:27.737Z,99434.63
2023-03-24T00:31:30.749Z,99431.38
2023-03-24T00:32:32.354Z,99428.59
2023-03-24T00:33:38.021Z,99431.50
2023-03-24T00:34:43.313Z,99432.75
2023-03-24T00:35:45.871Z,99438.41
2023-03-24T00:36:48.736Z,99424.91
2023-03-24T00:37:52.169Z,99426.59
2023-03-24T00:38:56.253Z,99427.94
2023-03-24T00:39:59.618Z,99425.38
2023-03-24T00:41:01.943Z,99425.00
2023-03-24T00:42:04.577Z,99427.59
2023-03-24T00:43:06.124Z,99428.88
2023-03-24T00:44:18.069Z,99422.41
2023-03-24T00:45:23.458Z,99416.13
2023-03-24T00:46:39.298Z,99412.66
2023-03-24T00:47:41.446Z,99407.38
2023-03-24T00:48:44.292Z,99405.50
2023-03-24T00:49:45.854Z,99409.31
2023-03-24T00:50:49.744Z,99401.53
2023-03-24T00:51:51.776Z,99405.72
2023-03-24T00:52:54.682Z,99400.78
2023-03-24T00:53:58.011Z,99409.63
2023-03-24T00:55:02.768Z,99403.28
2023-03-24T00:56:09.096Z,99398.00
2023-03-24T00:57:12.911Z,99399.72
2023-03-24T00:58:18.023Z,99398.88
2023-03-24T00:59:21.416Z,99389.81
2023-03-24T01:00:26.194Z,99388.66
2023-03-24T01:01:33.069Z,99389.84
2023-03-24T01:02:35.097Z,99386.16
2023-03-24T01:03:43.222Z,99393.44
2023-03-24T01:04:47.342Z,99400.03
2023-03-24T01:05:49.840Z,99392.34
2023-03-24T01:06:52.687Z,99389.56
2023-03-24T01:07:57.436Z,99391.97
2023-03-24T01:09:02.787Z,99384.69
2023-03-24T01:10:05.880Z,99387.91
2023-03-24T01:11:07.550Z,99387.88
2023-03-24T01:12:10.370Z,99381.44
2023-03-24T01:13:12.692Z,99384.69
2023-03-24T01:14:16.153Z,99391.19
2023-03-24T01:15:20.327Z,99388.13
2023-03-24T01:16:25.795Z,99381.03
2023-03-24T01:17:27.601Z,99379.72
2023-03-24T01:18:30.367Z,99379.00
2023-03-24T01:19:33.066Z,99377.38
2023-03-24T01:20:40.628Z,99372.41
2023-03-24T01:21:42.483Z,99374.53
2023-03-24T01:22:46.319Z,99381.72
2023-03-24T01:23:48.126Z,99375.59
2023-03-24T01:24:53.112Z,99379.22
2023-03-24T01:25:54.826Z,99384.66
2023-03-24T01:26:57.416Z,99375.06
2023-03-24T01:27:58.982Z,99379.72
2023-03-24T01:29:01.604Z,99375.47
2023-03-24T01:30:06.187Z,99371.28
2023-03-24T01:31:11.124Z,99374.63
2023-03-24T01:32:13.790Z,99372.66
2023-03-24T01:33:16.686Z,99372.09
2023-03-24T01:34:18.314Z,99366.44
2023-03-24T01:35:21.306Z,99371.19
2023-03-24T01:36:23.284Z,99369.00
2023-03-24T01:37:26.158Z,99360.44
2023-03-24T01:38:27.736Z,99366.72
2023-03-24T01:39:30.910Z,99363.00
2023-03-24T01:40:35.720Z,99362.31
2023-03-24T01:41:42.337Z,99362.19
2023-03-24T01:42:44.249Z,99361.69
2023-03-24T01:43:47.000Z,99368.00
2023-03-24T01:44:50.527Z,99359.91
2023-03-24T01:46:01.668Z,99368.72
2023-03-24T01:47:07.809Z,99358.22
2023-03-24T01:48:14.352Z,99359.06
2023-03-24T01:49:18.008Z,99353.34
2023-03-24T01:50:19.597Z,99347.19
2023-03-24T01:51:26.390Z,99350.81
2023-03-24T01:52:31.089Z,99353.19
2023-03-24T01:53:35.734Z,99354.28
2023-03-24T01:54:42.854Z,99354.06
2023-03-24T01:55:48.575Z,99344.75
2023-03-24T01:56:55.528Z,99352.03
2023-03-24T01:58:01.352Z,99349.66
2023-03-24T01:59:08.967Z,99344.63
2023-03-24T02:00:13.935Z,99340.41
2023-03-24T02:01:17.487Z,99346.47
2023-03-24T02:02:22.021Z,99341.91
2023-03-24T02:03:30.049Z,99342.94
2023-03-24T02:04:34.718Z,99345.16
2023-03-24T02:05:46.381Z,99332.72
2023-03-24T02:06:48.947Z,99337.63
2023-03-24T02:08:03.403Z,99335.22
2023-03-24T02:09:04.968Z,99341.88
2023-03-24T02:10:10.775Z,99338.97
2023-03-24T02:11:14.142Z,99336.31
2023-03-24T02:12:18.312Z,99336.63
2023-03-24T02:13:19.997Z,99337.50
2023-03-24T02:14:22.729Z,99341.44
2023-03-24T02:15:28.162Z,99339.94
2023-03-24T02:16:47.427Z,99339.31
2023-03-24T02:18:02.111Z,99331.53
2023-03-24T02:19:39.143Z,99332.66
2023-03-24T02:21:07.695Z,99334.69
2023-03-24T02:22:48.444Z,99328.53
2023-03-24T02:24:09.291Z,99324.00
2023-03-24T02:25:31.782Z,99323.66
2023-03-24T02:27:00.280Z,99333.75
2023-03-24T02:28:18.309Z,99328.16
2023-03-24T02:30:02.863Z,99327.03
2023-03-24T02:31:42.022Z,99324.00
2023-03-24T02:33:08.394Z,99325.47
2023-03-24T02:34:56.734Z,99323.00
2023-03-24T02:36:22.946Z,99308.91
2023-03-24T02:38:03.956Z,99308.00
2023-03-24T02:39:32.993Z,99311.16
2023-03-24T02:40:38.641Z,99301.41
2023-03-24T02:41:50.247Z,99307.94
2023-03-24T02:43:03.850Z,99303.00
2023-03-24T02:44:11.396Z,99291.84
2023-03-24T02:45:25.198Z,99297.13
2023-03-24T02:46:33.177Z,99299.72
2023-03-24T02:47:46.146Z,99302.63
2023-03-24T02:49:02.838Z,99305.09
2023-03-24T02:50:15.202Z,99298.19
2023-03-24T02:51:23.087Z,99295.75
2023-03-24T02:52:33.620Z,99300.91
2023-03-24T02:53:46.609Z,99303.19
2023-03-24T02:54:54.777Z,99295.88
2023-03-24T02:56:00.878Z,99297.28
2023-03-24T02:57:07.076Z,99283.78
2023-03-24T02:58:14.754Z,99273.66
2023-03-24T02:59:22.605Z,99279.28
2023-03-24T03:00:32.447Z,99280.91
2023-03-24T03:01:41.802Z,99278.03
2023-03-24T03:02:49.989Z,99271.13
2023-03-24T03:03:56.916Z,99273.38
2023-03-24T03:05:06.009Z,99272.88
2023-03-24T03:06:14.927Z,99276.91
2023-03-24T03:07:25.290Z,99274.28
2023-03-24T03:08:32.479Z,99266.41
2023-03-24T03:09:35.241Z,99269.50
2023-03-24T03:10:42.610Z,99268.53
2023-03-24T03:11:49.248Z,99264.88
2023-03-24T03:12:56.205Z,99259.41
2023-03-24T03:14:02.365Z,99252.16
2023-03-24T03:15:10.184Z,99256.47
2023-03-24T03:16:18.083Z,99260.31
2023-03-24T03:17:23.966Z,99260.66
2023-03-24T03:18:31.262Z,99263.19
2023-03-24T03:19:39.472Z,99269.75
2023-03-24T03:20:50.571Z,99262.69
2023-03-24T03:21:54.969Z,99258.72
2023-03-24T03:23:00.851Z,99265.91
2023-03-24T03:24:11.116Z,99261.44
2023-03-24T03:25:16.008Z,99256.63
2023-03-24T03:26:24.059Z,99258.25
2023-03-24T03:27:31.315Z,99250.34
2023-03-24T03:28:36.596Z,99259.38
2023-03-24T03:29:41.289Z,99257.09
2023-03-24T03:30:49.678Z,99258.50
2023-03-24T03:31:59.648Z,99254.38
2023-03-24T03:33:06.568Z,99246.00
2023-03-24T03:34:14.868Z,99244.41
2023-03-24T03:35:23.598Z,99252.78
2023-03-24T03:36:30.450Z,99238.25
2023-03-24T03:37:37.660Z,99239.88
2023-03-24T03:38:47.842Z,99233.78
2023-03-24T03:39:56.240Z,99236.78
2023-03-24T03:41:00.251Z,99235.69
2023-03-24T03:42:05.137Z,99237.31
2023-03-24T03:43:07.271Z,99233.94
2023-03-24T03:44:10.366Z,99235.41
2023-03-24T03:45:12.409Z,99228.63
2023-03-24T03:46:16.574Z,99224.25
2023-03-24T03:47:19.042Z,99233.78
2023-03-24T03:48:21.941Z,99218.00
2023-03-24T03:49:25.637Z,99225.56
2023-03-24T03:50:28.358Z,99224.25
2023-03-24T03:51:30.004Z,99220.22
2023-03-24T03:52:32.749Z,99215.09
2023-03-24T03:53:41.628Z,99210.38
2023-03-24T03:54:44.879Z,99215.06
2023-03-24T03:55:47.268Z,99214.59
2023-03-24T03:56:50.940Z,99214.06
2023-03-24T03:57:54.713Z,99214.25
2023-03-24T03:58:58.263Z,99211.06
2023-03-24T04:00:10.766Z,99208.00
2023-03-24T04:01:16.871Z,99209.91
2023-03-24T04:02:35.559Z,99206.28
2023-03-24T04:04:02.621Z,99208.31
2023-03-24T04:05:16.996Z,99208.97
2023-03-24T04:06:31.967Z,99204.28
2023-03-24T04:07:42.197Z,99200.22
2023-03-24T04:08:49.456Z,99195.81
2023-03-24T04:10:07.621Z,99195.91
2023-03-24T04:11:50.029Z,99185.72
2023-03-24T04:13:17.106Z,99189.69
2023-03-24T04:14:47.464Z,99189.69
2023-03-24T04:15:55.733Z,99199.53
2023-03-24T04:17:10.942Z,99196.16
2023-03-24T04:18:41.116Z,99202.84
2023-03-24T04:19:56.875Z,99183.78
2023-03-24T04:21:13.019Z,99190.34
2023-03-24T04:22:27.515Z,99183.13
2023-03-24T04:23:40.964Z,99193.19
2023-03-24T04:24:50.996Z,99182.81
2023-03-24T04:26:01.604Z,99187.13
2023-03-24T04:27:12.026Z,99182.88
2023-03-24T04:28:26.491Z,99188.59
2023-03-24T04:29:42.419Z,99189.69
2023-03-24T04:30:50.375Z,99184.19
2023-03-24T04:31:59.126Z,99183.09
2023-03-24T04:33:05.516Z,99189.44
2023-03-24T04:34:16.337Z,99178.31
2023-03-24T04:35:26.348Z,99169.53
2023-03-24T04:36:42.506Z,99176.75
2023-03-24T04:37:45.883Z,99168.31
2023-03-24T04:38:53.407Z,99174.06
2023-03-24T04:39:58.931Z,99173.00
2023-03-24T04:41:01.994Z,99153.19
2023-03-24T04:42:08.013Z,99170.94
2023-03-24T04:43:16.784Z,99155.91
2023-03-24T04:44:21.832Z,99163.31
2023-03-24T04:45:25.706Z,99158.16
2023-03-24T04:46:27.326Z,99153.00
2023-03-24T04:47:53.869Z,99157.84
2023-03-24T04:48:55.624Z,99157.31
2023-03-24T04:50:02.149Z,99155.09
2023-03-24T04:51:05.969Z,99135.13
2023-03-24T04:52:08.122Z,99144.09
2023-03-24T04:53:11.288Z,99142.03
2023-03-24T04:54:13.967Z,99137.38
2023-03-24T04:55:42.259Z,99131.38
2023-03-24T04:56:47.685Z,99137.94
2023-03-24T04:57:49.737Z,99140.03
2023-03-24T04:58:52.278Z,99136.88
2023-03-24T04:59:56.071Z,99143.22
2023-03-24T05:00:58.796Z,99130.69
2023-03-24T05:02:01.886Z,99131.44
2023-03-24T05:03:03.530Z,99126.44
2023-03-24T05:04:06.189Z,99126.56
2023-03-24T05:05:08.603Z,99119.13
2023-03-24T05:06:11.395Z,99123.84
2023-03-24T05:07:15.278Z,99122.84
2023-03-24T05:08:19.495Z,99121.47
2023-03-24T05:09:24.807Z,99123.69
2023-03-24T05:10:26.475Z,99116.88
2023-03-24T05:11:29.335Z,99122.06
2023-03-24T05:12:31.018Z,99115.97
2023-03-24T05:13:33.509Z,99116.47
2023-03-24T05:14:35.396Z,99108.66
2023-03-24T05:15:39.492Z,99117.06
2023-03-24T05:16:41.208Z,99106.16
2023-03-24T05:17:43.846Z,99120.00
2023-03-24T05:18:45.637Z,99099.06
2023-03-24T05:19:48.105Z,99114.53
2023-03-24T05:20:50.031Z,99105.06
2023-03-24T05:21:53.665Z,99113.94
2023-03-24T05:22:55.295Z,99105.25
2023-03-24T05:23:57.811Z,99113.25
2023-03-24T05:24:59.353Z,99107.59
2023-03-24T05:26:02.237Z,99122.91
2023-03-24T05:27:03.855Z,99113.59
2023-03-24T05:28:06.712Z,99108.22
2023-03-24T05:29:08.262Z,99108.28
2023-03-24T05:30:11.811Z,99106.19
2023-03-24T05:31:14.696Z,99109.91
2023-03-24T05:32:17.281Z,99105.53
2023-03-24T05:33:18.905Z,99111.19
2023-03-24T05:34:22.239Z,99107.50
2023-03-24T05:35:24.734Z,99123.91
2023-03-24T05:36:27.542Z,99117.78
2023-03-24T05:37:29.068Z,99106.56
2023-03-24T05:38:31.857Z,99114.22
2023-03-24T05:39:33.535Z,99104.06
2023-03-24T05:40:37.520Z,99095.84
2023-03-24T05:41:40.042Z,99094.75
2023-03-24T05:42:41.938Z,99091.19
2023-03-24T05:43:44.529Z,99093.72
2023-03-24T05:44:46.505Z,99091.69
2023-03-24T05:45:49.281Z,99072.22
2023-03-24T05:46:52.390Z,99083.13
2023-03-24T05:47:54.983Z,99069.13
2023-03-24T05:48:56.590Z,99075.75
2023-03-24T05:49:59.310Z,99075.28
2023-03-24T05:51:00.907Z,99071.91
2023-03-24T05:52:03.435Z,99075.22
2023-03-24T05:53:04.945Z,99079.03
2023-03-24T05:54:08.532Z,99074.19
2023-03-24T05:55:10.964Z,99079.19
2023-03-24T05:56:13.898Z,99080.59
2023-03-24T05:57:16.311Z,99077.09
2023-03-24T05:58:22.099Z,99076.91
2023-03-24T05:59:23.709Z,99076.59
2023-03-24T06:00:36.781Z,99079.81
2023-03-24T06:01:38.546Z,99078.84
2023-03-24T06:02:42.792Z,99066.72
2023-03-24T06:03:44.774Z,99079.84
2023-03-24T06:04:49.209Z,99067.28
2023-03-24T06:05:51.300Z,99076.94
2023-03-24T06:06:55.861Z,99072.56
2023-03-24T06:07:58.774Z,99065.50
2023-03-24T06:09:02.561Z,99063.75
2023-03-24T06:10:05.039Z,99081.00
2023-03-24T06:11:07.934Z,99079.75
2023-03-24T06:12:09.922Z,99082.63
2023-03-24T06:13:12.713Z,99083.09
2023-03-24T06:14:14.963Z,99081.16
2023-03-24T06:15:17.930Z,99074.25
2023-03-24T06:16:23.909Z,99076.84
2023-03-24T06:17:28.553Z,99062.28
2023-03-24T06:18:32.058Z,99075.53
2023-03-24T06:19:34.772Z,99067.06
2023-03-24T06:20:36.354Z,99066.44
2023-03-24T06:21:38.963Z,99078.34
2023-03-24T06:22:40.579Z,99067.22
2023-03-24T06:23:43.107Z,99061.97
2023-03-24T06:24:45.261Z,99061.97
2023-03-24T06:25:50.757Z,99058.56
2023-03-24T06:26:52.272Z,99062.63
2023-03-24T06:27:54.749Z,99058.69
2023-03-24T06:28:56.806Z,99057.28
2023-03-24T06:29:59.338Z,99053.53
2023-03-24T06:31:00.848Z,99051.50
2023-03-24T06:32:03.555Z,99055.63
2023-03-24T06:33:08.135Z,99055.09
2023-03-24T06:34:12.680Z,99061.59
2023-03-24T06:35:14.878Z,99073.47
2023-03-24T06:36:17.534Z,99072.31
2023-03-24T06:37:21.733Z,99069.88
2023-03-24T06:38:24.514Z,99073.53
2023-03-24T06:39:26.381Z,99069.81
2023-03-24T06:40:29.074Z,99083.75
2023-03-24T06:41:31.413Z,99075.94
2023-03-24T06:42:34.004Z,99079.16
2023-03-24T06:43:35.944Z,99080.94
2023-03-24T06:44:38.662Z,99079.28
2023-03-24T06:45:40.464Z,99079.34
2023-03-24T06:46:45.939Z,99078.56
2023-03-24T06:47:47.637Z,99074.25
2023-03-24T06:48:50.205Z,99083.16
2023-03-24T06:49:53.475Z,99080.94
2023-03-24T06:50:57.126Z,99076.13
2023-03-24T06:51:58.751Z,99070.50
2023-03-24T06:53:01.242Z,99078.41
2023-03-24T06:54:03.321Z,99083.34
2023-03-24T06:55:08.278Z,99079.38
2023-03-24T06:56:10.039Z,99078.25
2023-03-24T06:57:12.881Z,99073.94
2023-03-24T06:58:15.018Z,99089.63
2023-03-24T06:59:17.881Z,99076.38
2023-03-24T07:00:19.996Z,99083.44
2023-03-24T07:01:22.539Z,99069.38
2023-03-24T07:02:24.149Z,99082.34
2023-03-24T07:03:26.740Z,99081.28
2023-03-24T07:04:36.467Z,99075.00
2023-03-24T07:05:41.407Z,99080.06
2023-03-24T07:07:00.803Z,99086.22
2023-03-24T07:08:33.819Z,99080.63
2023-03-24T07:09:29.357Z,99064.91
2023-03-24T07:10:31.246Z,99083.88
2023-03-24T07:11:33.815Z,99084.13
2023-03-24T07:12:36.496Z,99081.72
2023-03-24T07:13:38.516Z,99087.00
2023-03-24T07:14:41.234Z,99097.16
2023-03-24T07:15:42.757Z,99090.78
2023-03-24T07:16:45.367Z,99104.06
2023-03-24T07:17:51.061Z,99098.44
2023-03-24T07:18:55.955Z,99104.63
2023-03-24T07:19:57.452Z,99102.66
2023-03-24T07:21:01.528Z,99104.06
2023-03-24T07:22:03.101Z,99113.53
2023-03-24T07:23:05.835Z,99115.22
2023-03-24T07:24:07.973Z,99112.63
2023-03-24T07:25:21.213Z,99110.47
2023-03-24T07:26:23.727Z,99105.22
2023-03-24T07:27:26.278Z,99112.38
2023-03-24T07:28:28.859Z,99113.31
2023-03-24T07:29:31.172Z,99111.06
2023-03-24T07:30:40.687Z,99104.97
2023-03-24T07:31:44.997Z,99101.53
2023-03-24T07:32:46.547Z,99108.25
2023-03-24T07:33:49.265Z,99108.72
2023-03-24T07:34:50.970Z,99112.72
2023-03-24T07:35:56.080Z,99107.00
2023-03-24T07:37:00.708Z,99111.34
2023-03-24T07:38:08.210Z,99110.91
2023-03-24T07:39:10.832Z,99104.50
2023-03-24T07:40:13.839Z,99121.19
2023-03-24T07:41:16.322Z,99111.75
2023-03-24T07:42:17.985Z,99104.25
2023-03-24T07:43:21.891Z,99111.03
2023-03-24T07:44:24.370Z,99118.47
2023-03-24T07:45:26.718Z,99109.78
2023-03-24T07:46:29.294Z,99106.91
2023-03-24T07:47:31.651Z,99109.78
2023-03-24T07:48:34.644Z,99114.94
2023-03-24T07:49:37.151Z,99117.09
2023-03-24T07:50:38.845Z,99096.81
2023-03-24T07:51:43.032Z,99112.84
2023-03-24T07:52:49.687Z,99103.66
2023-03-24T07:53:52.519Z,99104.81
2023-03-24T07:54:55.074Z,99098.94
2023-03-24T07:55:56.602Z,99099.84
2023-03-24T07:56:59.149Z,99111.06
2023-03-24T07:58:00.734Z,99106.34
2023-03-24T07:59:03.408Z,99110.00
2023-03-24T08:00:14.737Z,99110.41
2023-03-24T08:01:17.480Z,99112.88
2023-03-24T08:02:20.575Z,99103.28
2023-03-24T08:03:25.586Z,99104.53
2023-03-24T08:04:28.886Z,99098.69
2023-03-24T08:05:30.876Z,99103.16
2023-03-24T08:06:33.392Z,99099.50
2023-03-24T08:07:35.160Z,99089.88
2023-03-24T08:08:39.531Z,99083.28
2023-03-24T08:09:41.284Z,99078.91
2023-03-24T08:10:45.910Z,99082.69
2023-03-24T08:11:48.548Z,99082.22
2023-03-24T08:12:51.274Z,99071.59
2023-03-24T08:13:54.179Z,99042.41
2023-03-24T08:14:55.783Z,99072.84
2023-03-24T08:15:58.337Z,99064.03
2023-03-24T08:16:59.899Z,99070.66
2023-03-24T08:18:04.828Z,99078.00
2023-03-24T08:19:06.505Z,99076.16
2023-03-24T08:20:15.201Z,99069.75
2023-03-24T08:21:18.335Z,99067.47
2023-03-24T08:22:20.033Z,99072.94
2023-03-24T08:23:22.530Z,99076.03
2023-03-24T08:24:25.514Z,99071.22
2023-03-24T08:25:28.471Z,99076.97
2023-03-24T08:26:31.066Z,99065.59
2023-03-24T08:27:33.969Z,99073.41
2023-03-24T08:28:36.999Z,99075.22
2023-03-24T08:29:39.374Z,99071.06
2023-03-24T08:30:43.532Z,99077.00
2023-03-24T08:31:45.440Z,99079.75
2023-03-24T08:32:51.545Z,99071.19
2023-03-24T08:33:55.030Z,99077.25
2023-03-24T08:34:57.857Z,99086.06
2023-03-24T08:36:01.088Z,99081.59
2023-03-24T08:37:02.866Z,99075.38
2023-03-24T08:38:07.218Z,99078.88
2023-03-24T08:39:09.760Z,99073.00
2023-03-24T08:40:18.446Z,99078.06
2023-03-24T08:41:21.908Z,99072.16
2023-03-24T08:42:23.784Z,99077.97
2023-03-24T08:43:27.492Z,99068.63
2023-03-24T08:44:32.792Z,99079.31
2023-03-24T08:45:36.680Z,99074.38
2023-03-24T08:46:48.989Z,99102.66
2023-03-24T08:47:52.290Z,99088.16
2023-03-24T08:48:54.866Z,99090.50
2023-03-24T08:49:59.183Z,99109.25
2023-03-24T08:51:01.748Z,99102.63
2023-03-24T08:52:03.710Z,99091.84
2023-03-24T08:53:06.641Z,99102.78
2023-03-24T08:54:09.454Z,99090.56
2023-03-24T08:55:13.419Z,99087.84
2023-03-24T08:56:15.892Z,99106.97
2023-03-24T08:57:17.811Z,99093.69
2023-03-24T08:58:21.852Z,99097.50
2023-03-24T08:59:23.693Z,99089.00
2023-03-24T09:00:26.245Z,99102.16
2023-03-24T09:01:28.825Z,99092.44
2023-03-24T09:02:30.403Z,99094.06
2023-03-24T09:03:32.900Z,99095.41
2023-03-24T09:04:34.507Z,99096.75
2023-03-24T09:05:54.552Z,99092.66
2023-03-24T09:07:01.688Z,99080.25
2023-03-24T09:08:05.700Z,99094.81
2023-03-24T09:09:08.518Z,99108.88
2023-03-24T09:10:13.756Z,99090.88
2023-03-24T09:11:17.146Z,99116.78
2023-03-24T09:12:19.642Z,99096.25
2023-03-24T09:13:21.413Z,99103.34
2023-03-24T09:14:24.228Z,99106.81
2023-03-24T09:15:26.841Z,99105.75
2023-03-24T09:16:29.534Z,99102.88
2023-03-24T09:17:31.113Z,99100.19
2023-03-24T09:18:34.495Z,99100.09
2023-03-24T09:19:36.139Z,99104.19
2023-03-24T09:20:38.690Z,99119.72
2023-03-24T09:21:41.792Z,99112.59
2023-03-24T09:22:45.961Z,99106.41
2023-03-24T09:23:47.605Z,99114.91
2023-03-24T09:24:50.585Z,99122.84
2023-03-24T09:25:54.626Z,99111.72
2023-03-24T09:26:56.185Z,99115.31
2023-03-24T09:27:58.642Z,99116.78
2023-03-24T09:29:01.290Z,99112.00
2023-03-24T09:30:03.544Z,99114.09
2023-03-24T09:31:07.516Z,99093.78
2023-03-24T09:32:10.489Z,99117.88
2023-03-24T09:33:13.585Z,99112.06
2023-03-24T09:34:15.675Z,99129.88
2023-03-24T09:35:18.721Z,99131.81
2023-03-24T09:36:21.706Z,99108.44
2023-03-24T09:37:23.288Z,99104.88
2023-03-24T09:38:26.512Z,99106.31
2023-03-24T09:39:28.371Z,99104.44
2023-03-24T09:40:33.956Z,99107.53
2023-03-24T09:41:37.955Z,99103.34
2023-03-24T09:42:42.546Z,99114.75
2023-03-24T09:43:50.043Z,99134.56
2023-03-24T09:44:56.612Z,99124.44
2023-03-24T09:46:03.121Z,99129.22
2023-03-24T09:47:14.535Z,99119.56
2023-03-24T09:48:21.428Z,99120.88
2023-03-24T09:49:28.036Z,99126.47
2023-03-24T09:50:36.121Z,99127.09
2023-03-24T09:51:43.635Z,99133.28
2023-03-24T09:52:49.114Z,99126.03
2023-03-24T09:53:59.195Z,99143.00
2023-03-24T09:55:02.578Z,99123.03
2023-03-24T09:56:12.454Z,99126.47
2023-03-24T09:57:22.925Z,99117.13
2023-03-24T09:58:29.599Z,99122.03
2023-03-24T09:59:36.312Z,99117.16
2023-03-24T10:00:38.122Z,99143.00
2023-03-24T10:01:40.742Z,99139.03
2023-03-24T10:02:42.464Z,99134.47
2023-03-24T10:03:46.621Z,99128.78
2023-03-24T10:04:49.560Z,99138.56
2023-03-24T10:05:55.399Z,99140.78
2023-03-24T10:07:01.769Z,99138.56
2023-03-24T10:08:14.618Z,99132.69
2023-03-24T10:09:24.036Z,99150.94
2023-03-24T10:10:34.500Z,99135.28
2023-03-24T10:11:43.212Z,99148.88
2023-03-24T10:12:49.166Z,99141.69
2023-03-24T10:14:11.767Z,99134.22
2023-03-24T10:16:37.517Z,99147.75
2023-03-24T10:17:48.662Z,99136.91
2023-03-24T10:19:00.586Z,99143.69
2023-03-24T10:20:12.444Z,99135.41
2023-03-24T10:21:19.441Z,99143.47
2023-03-24T10:22:26.752Z,99137.44
2023-03-24T10:23:36.609Z,99144.97
2023-03-24T10:24:48.174Z,99148.84
2023-03-24T10:25:54.226Z,99154.16
2023-03-24T10:27:04.813Z,99159.47
2023-03-24T10:28:19.723Z,99147.91
2023-03-24T10:29:25.019Z,99139.44
2023-03-24T10:30:29.967Z,99145.06
2023-03-24T10:31:34.133Z,99160.38
2023-03-24T10:32:38.231Z,99151.03
2023-03-24T10:33:42.857Z,99142.69
2023-03-24T10:34:49.417Z,99138.75
2023-03-24T10:35:57.344Z,99142.44
2023-03-24T10:37:02.235Z,99144.63
2023-03-24T10:38:12.332Z,99138.31
2023-03-24T10:39:22.510Z,99147.16
2023-03-24T10:40:33.257Z,99134.41
2023-03-24T10:41:37.540Z,99137.56
2023-03-24T10:42:39.409Z,99159.91
2023-03-24T10:43:44.546Z,99141.22
2023-03-24T10:44:49.152Z,99157.41
2023-03-24T10:45:54.274Z,99163.97
2023-03-24T10:46:59.124Z,99161.50
2023-03-24T10:48:03.510Z,99147.50
2023-03-24T10:49:10.209Z,99133.44
2023-03-24T10:50:14.507Z,99142.19
2023-03-24T10:51:19.476Z,99139.09
2023-03-24T10:52:24.500Z,99152.53
2023-03-24T10:53:27.419Z,99148.91
2023-03-24T10:54:31.464Z,99151.78
2023-03-24T10:55:39.088Z,99153.88
2023-03-24T10:56:43.416Z,99140.31
2023-03-24T10:57:55.946Z,99154.66
2023-03-24T10:58:59.940Z,99144.41
2023-03-24T11:00:14.326Z,99178.22
2023-03-24T11:01:27.253Z,99212.28
2023-03-24T11:02:32.556Z,99204.50
2023-03-24T11:03:36.966Z,99213.81
2023-03-24T11:04:41.777Z,99222.34
2023-03-24T11:05:44.651Z,99214.41
2023-03-24T11:07:04.098Z,99216.00
2023-03-24T11:08:27.028Z,99234.31
2023-03-24T11:09:28.752Z,99251.47
2023-03-24T11:10:31.224Z,99233.72
2023-03-24T11:11:32.809Z,99237.38
2023-03-24T11:12:37.982Z,99237.78
2023-03-24T11:13:39.683Z,99229.97
2023-03-24T11:14:46.552Z,99232.72
2023-03-24T11:15:58.799Z,99233.41
2023-03-24T11:17:11.974Z,99232.91
2023-03-24T11:18:17.218Z,99241.16
2023-03-24T11:19:22.483Z,99229.44
2023-03-24T11:20:30.185Z,99232.72
2023-03-24T11:21:36.033Z,99236.59
2023-03-24T11:22:40.153Z,99232.44
2023-03-24T11:23:44.618Z,99228.13
2023-03-24T11:24:52.772Z,99220.31
2023-03-24T11:26:04.079Z,99227.75
2023-03-24T11:27:06.913Z,99224.91
2023-03-24T11:28:15.288Z,99219.72
2023-03-24T11:29:21.814Z,99219.16
2023-03-24T11:30:27.970Z,99223.97
2023-03-24T11:31:35.093Z,99231.34
2023-03-24T11:32:36.838Z,99226.97
2023-03-24T11:33:46.592Z,99231.25
2023-03-24T11:34:52.679Z,99236.78
2023-03-24T11:36:05.214Z,99239.19
2023-03-24T11:37:13.039Z,99238.59
2023-03-24T11:38:17.370Z,99238.03
2023-03-24T11:39:22.746Z,99237.31
2023-03-24T11:40:27.231Z,99242.44
2023-03-24T11:41:28.891Z,99247.91
2023-03-24T11:42:31.384Z,99249.41
2023-03-24T11:43:33.019Z,99256.03
2023-03-24T11:44:47.581Z,99250.53
2023-03-24T11:46:00.310Z,99253.75
2023-03-24T11:47:09.779Z,99255.16
2023-03-24T11:49:53.293Z,99263.25
2023-03-24T11:50:57.601Z,99254.91
2023-03-24T11:52:00.899Z,99249.13
2023-03-24T11:53:09.094Z,99252.50
2023-03-24T11:54:14.552Z,99264.66
2023-03-24T11:55:21.966Z,99272.34
2023-03-24T11:56:27.817Z,99271.16
2023-03-24T11:57:45.962Z,99265.28
2023-03-24T11:58:54.328Z,99271.84
2023-03-24T12:00:04.978Z,99265.81
2023-03-24T12:01:17.554Z,99255.84
2023-03-24T12:02:25.833Z,99266.53
2023-03-24T12:03:53.994Z,99268.81
2023-03-24T12:05:10.432Z,99280.91
2023-03-24T12:06:24.445Z,99277.56
2023-03-24T12:08:07.041Z,99271.25
2023-03-24T12:09:21.221Z,99277.69
2023-03-24T12:10:34.912Z,99278.19
2023-03-24T12:11:52.802Z,99282.91
2023-03-24T12:13:05.341Z,99280.78
2023-03-24T12:14:09.172Z,99280.63
2023-03-24T12:15:28.765Z,99283.19
2023-03-24T12:16:44.733Z,99278.84
2023-03-24T12:17:55.895Z,99287.06
2023-03-24T12:19:18.062Z,99288.69
2023-03-24T12:20:25.773Z,99298.66
2023-03-24T12:21:44.890Z,99291.09
2023-03-24T12:22:58.373Z,99293.50
2023-03-24T12:24:09.678Z,99299.78
2023-03-24T12:25:29.737Z,99291.41
2023-03-24T12:26:33.594Z,99302.84
2023-03-24T12:27:47.369Z,99303.66
2023-03-24T12:29:10.810Z,99305.88
2023-03-24T12:30:22.786Z,99306.53
2023-03-24T12:31:56.159Z,99313.13
2023-03-24T12:33:14.413Z,99305.09
2023-03-24T12:34:35.568Z,99322.66
2023-03-24T12:35:56.967Z,99315.72
2023-03-24T12:37:07.381Z,99326.03
2023-03-24T12:38:22.072Z,99320.56
2023-03-24T12:39:28.868Z,99325.03
2023-03-24T12:40:53.675Z,99314.09
2023-03-24T12:42:08.490Z,99327.66
2023-03-24T12:43:22.860Z,99320.22
2023-03-24T12:44:38.137Z,99312.50
2023-03-24T12:45:49.493Z,99316.03
2023-03-24T12:47:03.618Z,99319.41
2023-03-24T12:48:23.694Z,99312.00
2023-03-24T12:49:43.281Z,99324.41
2023-03-24T12:50:57.681Z,99331.00
2023-03-24T12:52:15.057Z,99325.06
2023-03-24T12:53:41.771Z,99322.81
2023-03-24T12:54:52.231Z,99313.94
2023-03-24T12:56:00.447Z,99322.16
2023-03-24T12:57:07.689Z,99315.69
2023-03-24T12:58:15.875Z,99317.50
2023-03-24T12:59:24.127Z,99314.41
2023-03-24T13:00:33.827Z,99315.38
2023-03-24T13:01:40.449Z,99311.03
2023-03-24T13:02:48.722Z,99305.25
2023-03-24T13:03:59.496Z,99309.44